| time (UTC) | temp C | wind direction | speed KPH | gust KPH | rain 1hr cm | rain 24hr cm | rain mn cm | humidity % | barometer mb |
| 20260505071509 | 17 | 121 | 3.2 | 0.0 | 0.00 | 0.00 | 0.00 | 73 | 1003.9 |
| 20260505070008 | 17 | 165 | 3.2 | 0.0 | 0.00 | 0.00 | 0.00 | 72 | 1003.9 |
| 20260505064508 | 17 | 360 | 4.8 | 0.0 | 0.00 | 0.00 | 0.00 | 72 | 1003.9 |
| 20260505063007 | 17 | 248 | 3.2 | 0.0 | 0.00 | 0.00 | 0.00 | 73 | 1004.0 |
| 20260505061510 | 17 | 61 | 3.2 | 0.0 | 0.00 | 0.00 | 0.00 | 72 | 1003.9 |
| 20260505060006 | 17 | 274 | 3.2 | 0.0 | 0.00 | 0.00 | 0.00 | 72 | 1003.8 |
| 20260505054506 | 17 | 24 | 4.8 | 0.0 | 0.00 | 0.00 | 0.00 | 71 | 1004.1 |
| 20260505053004 | 17 | 46 | 4.8 | 0.0 | 0.00 | 0.00 | 0.00 | 71 | 1004.3 |
| 20260505051508 | 17 | 117 | 3.2 | 0.0 | 0.00 | 0.00 | 0.00 | 71 | 1004.0 |
| 20260505041600 | 18 | 247 | 4.8 | 0.0 | 0.00 | 0.00 | 0.00 | 70 | 1004.6 |
| 20260505040104 | 18 | 123 | 4.8 | 0.0 | 0.00 | 0.00 | 0.00 | 70 | 1004.6 |
| 20260505034558 | 18 | 115 | 3.2 | 0.0 | 0.00 | 0.00 | 0.00 | 68 | 1005.0 |
| 20260505033059 | 18 | 179 | 4.8 | 0.0 | 0.00 | 0.00 | 0.00 | 68 | 1005.2 |
| 20260505031600 | 18 | 184 | 3.2 | 0.0 | 0.00 | 0.00 | 0.00 | 67 | 1005.1 |
| 20260505024558 | 19 | 34 | 3.2 | 0.0 | 0.00 | 0.00 | 0.00 | 64 | 1005.0 |
| 20260505023057 | 20 | 148 | 3.2 | 0.0 | 0.00 | 0.00 | 0.00 | 63 | 1004.7 |
| 20260505021556 | 20 | 360 | 3.2 | 0.0 | 0.00 | 0.00 | 0.00 | 62 | 1004.6 |
| 20260505020104 | 20 | 271 | 3.2 | 0.0 | 0.00 | 0.00 | 0.00 | 60 | 1004.4 |
| 20260505014557 | 20 | 242 | 3.2 | 0.0 | 0.00 | 0.00 | 0.00 | 59 | 1004.1 |
| 20260505013105 | 21 | 135 | 3.2 | 0.0 | 0.00 | 0.00 | 0.00 | 58 | 1003.8 |
| 20260505011600 | 21 | 293 | 3.2 | 0.0 | 0.00 | 0.00 | 0.00 | 57 | 1003.7 |
| 20260505010111 | 21 | 240 | 3.2 | 0.0 | 0.00 | 0.00 | 0.00 | 55 | 1003.6 |
| 20260505004555 | 22 | 241 | 3.2 | 0.0 | 0.00 | 0.00 | 0.00 | 54 | 1003.5 |
| 20260505003100 | 22 | 334 | 1.6 | 0.0 | 0.00 | 0.00 | 0.00 | 52 | 1003.4 |
| 20260505001604 | 22 | 167 | 3.2 | 0.0 | 0.00 | 0.00 | 0.00 | 51 | 1003.4 |
| 20260505000100 | 23 | 360 | 4.8 | 0.0 | 0.00 | 0.00 | 0.00 | 50 | 1003.4 |
| 20260504234557 | 23 | 234 | 4.8 | 0.0 | 0.00 | 0.00 | 0.00 | 50 | 1003.5 |
| 20260504233108 | 23 | 209 | 4.8 | 0.0 | 0.00 | 0.00 | 0.00 | 49 | 1003.5 |
| 20260504231603 | 24 | 55 | 4.8 | 0.0 | 0.00 | 0.00 | 0.00 | 49 | 1003.6 |
| 20260504230058 | 24 | 360 | 4.8 | 0.0 | 0.00 | 0.00 | 0.00 | 50 | 1003.6 |
| 20260504224554 | 25 | 254 | 6.4 | 0.0 | 0.00 | 0.00 | 0.00 | 49 | 1003.6 |
| 20260504223053 | 25 | 154 | 4.8 | 0.0 | 0.00 | 0.00 | 0.00 | 49 | 1003.6 |
| 20260504221552 | 25 | 304 | 4.8 | 0.0 | 0.00 | 0.00 | 0.00 | 49 | 1003.6 |
| 20260504220051 | 25 | 92 | 4.8 | 0.0 | 0.00 | 0.00 | 0.00 | 50 | 1003.7 |
| 20260504214555 | 25 | 16 | 4.8 | 0.0 | 0.00 | 0.00 | 0.00 | 50 | 1003.8 |
| 20260504213051 | 25 | 100 | 4.8 | 0.0 | 0.00 | 0.00 | 0.00 | 48 | 1003.9 |
| 20260504211550 | 25 | 208 | 4.8 | 0.0 | 0.00 | 0.00 | 0.00 | 47 | 1003.9 |
| 20260504210104 | 25 | 154 | 6.4 | 0.0 | 0.00 | 0.00 | 0.00 | 47 | 1004.0 |
| 20260504204558 | 26 | 42 | 4.8 | 0.0 | 0.00 | 0.00 | 0.00 | 47 | 1004.4 |
| 20260504203102 | 26 | 35 | 4.8 | 0.0 | 0.00 | 0.00 | 0.00 | 47 | 1004.5 |
| 20260504201546 | 26 | 74 | 6.4 | 0.0 | 0.00 | 0.00 | 0.00 | 45 | 1004.5 |
| 20260504200045 | 27 | 114 | 6.4 | 0.0 | 0.00 | 0.00 | 0.00 | 42 | 1004.8 |
| 20260504194544 | 28 | 219 | 4.8 | 0.0 | 0.00 | 0.00 | 0.00 | 42 | 1004.9 |
| 20260504193041 | 28 | 178 | 6.4 | 0.0 | 0.00 | 0.00 | 0.00 | 41 | 1005.1 |
| 20260504191542 | 28 | 171 | 6.4 | 0.0 | 0.00 | 0.00 | 0.00 | 40 | 1005.1 |
| 20260504190100 | 28 | 264 | 8.0 | 0.0 | 0.00 | 0.00 | 0.00 | 39 | 1005.4 |
| 20260504184538 | 28 | 77 | 4.8 | 0.0 | 0.00 | 0.00 | 0.00 | 42 | 1005.4 |
| 20260504183039 | 28 | 30 | 6.4 | 0.0 | 0.00 | 0.00 | 0.00 | 43 | 1005.6 |
| 20260504181541 | 28 | 360 | 6.4 | 0.0 | 0.00 | 0.00 | 0.00 | 42 | 1005.3 |
| 20260504180035 | 27 | 287 | 6.4 | 0.0 | 0.00 | 0.00 | 0.00 | 44 | 1005.4 |
| 20260504174532 | 27 | 82 | 6.4 | 0.0 | 0.00 | 0.00 | 0.00 | 45 | 1005.7 |
| 20260504173029 | 27 | 66 | 6.4 | 0.0 | 0.00 | 0.00 | 0.00 | 44 | 1005.8 |
| 20260504171526 | 26 | 87 | 6.4 | 0.0 | 0.00 | 0.00 | 0.00 | 42 | 1005.7 |
| 20260504081523 | 15 | 173 | 3.2 | 0.0 | 0.00 | 0.00 | 0.00 | 65 | 1009.0 |